createdAt,value
2018-02-17T00:00:42.642Z,25.50
2018-02-17T00:03:10.207Z,26.30
2018-02-17T00:05:38.584Z,23.77
2018-02-17T00:08:06.142Z,25.52
2018-02-17T00:10:33.742Z,28.48
2018-02-17T00:13:01.338Z,34.90
2018-02-17T00:15:28.899Z,39.08
2018-02-17T00:17:56.465Z,29.25
2018-02-17T00:20:24.122Z,41.37
2018-02-17T00:22:51.668Z,36.88
2018-02-17T00:25:19.252Z,33.53
2018-02-17T00:27:46.890Z,33.25
2018-02-17T00:30:14.473Z,58.08
2018-02-17T00:32:42.048Z,31.70
2018-02-17T00:35:09.678Z,33.53
2018-02-17T00:37:37.358Z,41.00
2018-02-17T00:40:04.925Z,35.17
2018-02-17T00:42:32.524Z,40.78
2018-02-17T00:45:00.123Z,41.53
2018-02-17T00:47:28.497Z,31.42
2018-02-17T00:49:56.857Z,44.55
2018-02-17T00:52:24.409Z,40.03
2018-02-17T00:54:51.999Z,36.15
2018-02-17T00:57:20.395Z,44.42
2018-02-17T00:59:47.986Z,40.12
2018-02-17T01:02:15.704Z,42.70
2018-02-17T01:04:44.062Z,38.72
2018-02-17T01:07:11.662Z,35.58
2018-02-17T01:09:39.234Z,56.67
2018-02-17T01:12:06.851Z,51.80
2018-02-17T01:14:34.407Z,37.67
2018-02-17T01:17:01.976Z,41.75
2018-02-17T01:19:29.588Z,40.17
2018-02-17T01:21:57.144Z,41.72
2018-02-17T01:24:24.758Z,49.17
2018-02-17T01:26:52.318Z,40.80
2018-02-17T01:29:19.892Z,52.45
2018-02-17T01:31:47.485Z,42.58
2018-02-17T01:34:15.040Z,44.92
2018-02-17T01:36:43.403Z,44.75
2018-02-17T01:39:11.774Z,44.33
2018-02-17T01:41:39.331Z,51.08
2018-02-17T01:44:06.930Z,44.85
2018-02-17T01:46:34.488Z,52.17
2018-02-17T01:49:02.871Z,41.08
2018-02-17T01:51:30.444Z,57.08
2018-02-17T01:53:58.049Z,46.17
2018-02-17T01:56:25.628Z,50.65
2018-02-17T01:58:53.971Z,50.65
2018-02-17T02:01:21.568Z,57.55
2018-02-17T02:03:49.125Z,48.08
2018-02-17T02:06:16.719Z,49.35
2018-02-17T02:08:44.308Z,52.15
2018-02-17T02:11:11.896Z,45.90
2018-02-17T02:13:42.567Z,41.60
2018-02-17T02:16:13.168Z,48.50
2018-02-17T02:18:43.710Z,39.03
2018-02-17T02:21:13.562Z,49.95
2018-02-17T02:23:44.021Z,55.92
2018-02-17T02:26:13.847Z,49.42
2018-02-17T02:28:43.697Z,48.10
2018-02-17T02:31:14.159Z,50.00
2018-02-17T02:33:44.426Z,50.05
2018-02-17T02:36:15.492Z,43.85
2018-02-17T02:38:46.068Z,46.88
2018-02-17T02:41:15.420Z,42.25
2018-02-17T02:43:46.026Z,55.28
2018-02-17T02:46:15.828Z,47.03
2018-02-17T02:48:45.196Z,47.60
2018-02-17T02:51:15.963Z,56.37
2018-02-17T02:53:45.674Z,49.05
2018-02-17T02:56:15.561Z,50.75
2018-02-17T02:58:45.504Z,46.17
2018-02-17T03:01:16.097Z,49.25
2018-02-17T03:03:45.974Z,45.97
2018-02-17T03:06:16.566Z,51.47
2018-02-17T03:08:45.951Z,48.33
2018-02-17T03:11:15.786Z,51.92
2018-02-17T03:13:45.167Z,53.53
2018-02-17T03:16:14.594Z,51.83
2018-02-17T03:18:44.785Z,51.40
2018-02-17T03:21:15.002Z,51.40
2018-02-17T03:23:45.251Z,49.88
2018-02-17T03:26:14.842Z,63.70
2018-02-17T03:28:44.623Z,54.17
2018-02-17T03:31:14.118Z,47.40
2018-02-17T03:33:43.616Z,49.03
2018-02-17T03:36:11.208Z,52.78
2018-02-17T03:38:38.791Z,55.47
2018-02-17T03:41:07.183Z,59.28
2018-02-17T03:43:34.766Z,51.95
2018-02-17T03:46:03.085Z,47.08
2018-02-17T03:48:30.676Z,52.22
2018-02-17T03:50:58.225Z,58.35
2018-02-17T03:53:26.590Z,54.42
2018-02-17T03:55:54.168Z,55.63
2018-02-17T03:58:22.517Z,48.87
2018-02-17T04:00:50.109Z,54.28
2018-02-17T04:03:18.447Z,54.00
2018-02-17T04:05:46.058Z,56.17
2018-02-17T04:08:13.628Z,55.00
2018-02-17T04:10:41.227Z,57.62
2018-02-17T04:13:08.780Z,54.17
2018-02-17T04:15:36.332Z,58.83
2018-02-17T04:18:03.929Z,70.37
2018-02-17T04:20:31.488Z,58.03
2018-02-17T04:22:59.093Z,62.70
2018-02-17T04:25:26.656Z,57.60
2018-02-17T04:27:54.253Z,61.42
2018-02-17T04:30:21.864Z,57.97
2018-02-17T04:32:49.452Z,61.33
2018-02-17T04:35:17.018Z,76.53
2018-02-17T04:37:44.636Z,63.72
2018-02-17T04:40:19.630Z,63.25
2018-02-17T04:43:08.068Z,67.15
2018-02-17T04:45:36.438Z,66.10
2018-02-17T04:48:05.468Z,68.15
2018-02-17T04:50:33.580Z,63.05
2018-02-17T04:53:16.032Z,65.07
2018-02-17T04:56:02.401Z,69.75
2018-02-17T04:58:31.312Z,59.78
2018-02-17T05:01:18.788Z,62.35
2018-02-17T05:03:47.937Z,53.25
2018-02-17T05:06:30.405Z,68.68
2018-02-17T05:08:58.756Z,65.10
2018-02-17T05:11:26.344Z,67.07
2018-02-17T05:14:10.501Z,63.45
2018-02-17T05:16:47.967Z,56.72
2018-02-17T05:19:30.100Z,65.28
2018-02-17T05:21:58.132Z,66.22
2018-02-17T05:24:36.439Z,68.93
2018-02-17T05:27:21.705Z,59.25
2018-02-17T05:30:04.144Z,64.93
2018-02-17T05:32:51.212Z,62.25
2018-02-17T05:35:21.634Z,62.58
2018-02-17T05:37:49.193Z,56.85
2018-02-17T05:40:17.310Z,65.68
2018-02-17T05:42:44.860Z,65.62
2018-02-17T05:45:12.444Z,62.67
2018-02-17T05:47:41.377Z,49.08
2018-02-17T05:50:09.510Z,61.13
2018-02-17T05:52:37.915Z,60.00
2018-02-17T05:55:05.467Z,64.20
2018-02-17T05:57:33.050Z,59.75
2018-02-17T06:00:00.640Z,74.65
2018-02-17T06:02:28.228Z,61.03
2018-02-17T06:04:56.610Z,51.33
2018-02-17T06:07:24.976Z,59.63
2018-02-17T06:09:52.560Z,58.63
2018-02-17T06:12:20.920Z,58.17
2018-02-17T06:14:48.526Z,55.63
2018-02-17T06:17:16.091Z,54.75
2018-02-17T06:19:43.681Z,56.90
2018-02-17T06:22:11.243Z,58.08
2018-02-17T06:24:38.828Z,60.28
2018-02-17T06:27:06.424Z,58.72
2018-02-17T06:29:34.004Z,61.30
2018-02-17T06:32:01.598Z,58.20
2018-02-17T06:34:29.151Z,58.95
2018-02-17T06:36:56.750Z,58.60
2018-02-17T06:39:24.328Z,60.60
2018-02-17T06:41:51.944Z,64.15
2018-02-17T06:44:19.504Z,61.65
2018-02-17T06:46:47.072Z,69.80
2018-02-17T06:49:15.439Z,77.87
2018-02-17T06:51:43.073Z,62.75
2018-02-17T06:54:11.388Z,70.18
2018-02-17T06:56:38.985Z,72.57
2018-02-17T06:59:06.583Z,63.17
2018-02-17T07:01:34.135Z,73.87
2018-02-17T07:04:01.724Z,57.00
2018-02-17T07:06:29.288Z,66.95
2018-02-17T07:08:56.906Z,68.45
2018-02-17T07:11:24.488Z,61.45
2018-02-17T07:13:52.033Z,59.65
2018-02-17T07:16:19.653Z,60.40
2018-02-17T07:18:47.223Z,68.75
2018-02-17T07:21:14.849Z,67.35
2018-02-17T07:23:42.450Z,65.15
2018-02-17T07:26:10.065Z,72.07
2018-02-17T07:28:37.660Z,72.90
2018-02-17T07:31:05.228Z,69.80
2018-02-17T07:33:33.572Z,65.43
2018-02-17T07:36:01.176Z,64.07
2018-02-17T07:38:28.848Z,67.55
2018-02-17T07:40:56.439Z,56.83
2018-02-17T07:43:24.003Z,59.40
2018-02-17T07:45:51.623Z,72.93
2018-02-17T07:48:19.176Z,63.42
2018-02-17T07:50:47.531Z,65.70
2018-02-17T07:53:15.136Z,66.50
2018-02-17T07:55:42.713Z,83.45
2018-02-17T07:58:10.296Z,66.03
2018-02-17T08:00:37.860Z,73.25
2018-02-17T08:03:05.464Z,66.03
2018-02-17T08:05:33.781Z,68.85
2018-02-17T08:08:01.380Z,68.80
2018-02-17T08:10:28.963Z,64.60
2018-02-17T08:12:57.338Z,75.43
2018-02-17T08:15:25.713Z,70.97
2018-02-17T08:17:53.281Z,67.18
2018-02-17T08:20:20.866Z,73.90
2018-02-17T08:22:48.463Z,70.57
2018-02-17T08:25:16.020Z,68.70
2018-02-17T08:27:43.624Z,59.30
2018-02-17T08:30:11.989Z,74.82
2018-02-17T08:32:39.544Z,69.80
2018-02-17T08:35:07.096Z,72.65
2018-02-17T08:37:34.713Z,70.45
2018-02-17T08:40:02.328Z,66.37
2018-02-17T08:42:30.769Z,67.75
2018-02-17T08:44:58.392Z,65.30
2018-02-17T08:47:26.801Z,73.57
2018-02-17T08:49:54.355Z,55.30
2018-02-17T08:52:22.712Z,65.32
2018-02-17T08:54:50.319Z,65.65
2018-02-17T08:57:17.880Z,59.10
2018-02-17T08:59:45.496Z,52.75
2018-02-17T09:02:13.823Z,62.97
2018-02-17T09:04:41.406Z,58.60
2018-02-17T09:07:09.003Z,46.60
2018-02-17T09:09:37.395Z,54.15
2018-02-17T09:12:04.998Z,47.22
2018-02-17T09:14:32.577Z,48.80
2018-02-17T09:17:00.202Z,54.78
2018-02-17T09:19:27.780Z,53.08
2018-02-17T09:21:55.342Z,41.35
2018-02-17T09:24:22.941Z,58.53
2018-02-17T09:26:56.040Z,47.17
2018-02-17T09:29:23.589Z,41.95
2018-02-17T09:31:51.177Z,44.08
2018-02-17T09:34:18.788Z,46.10
2018-02-17T09:36:46.340Z,44.92
2018-02-17T09:39:13.939Z,41.95
2018-02-17T09:41:42.327Z,42.75
2018-02-17T09:44:10.655Z,62.00
2018-02-17T09:46:38.268Z,44.03
2018-02-17T09:49:05.829Z,52.83
2018-02-17T09:51:33.424Z,46.70
2018-02-17T09:54:00.979Z,36.30
2018-02-17T09:56:28.568Z,50.55
2018-02-17T09:58:56.181Z,38.97
2018-02-17T10:01:23.734Z,40.00
2018-02-17T10:03:52.056Z,40.75
2018-02-17T10:06:19.680Z,57.28
2018-02-17T10:08:47.241Z,35.92
2018-02-17T10:11:14.801Z,37.58
2018-02-17T10:13:42.401Z,41.05
2018-02-17T10:16:09.992Z,45.05
2018-02-17T10:18:38.363Z,43.28
2018-02-17T10:21:05.930Z,55.17
2018-02-17T10:23:34.300Z,38.95
2018-02-17T10:26:01.924Z,45.85
2018-02-17T10:28:29.476Z,37.22
2018-02-17T10:30:59.106Z,45.00
2018-02-17T10:33:26.662Z,39.90
2018-02-17T10:35:54.221Z,36.55
2018-02-17T10:38:21.816Z,38.38
2018-02-17T10:40:49.372Z,52.03
2018-02-17T10:43:16.976Z,35.25
2018-02-17T10:45:44.624Z,34.28
2018-02-17T10:48:12.994Z,39.55
2018-02-17T10:50:41.335Z,39.55
2018-02-17T10:53:08.920Z,40.80
2018-02-17T10:55:38.291Z,36.90
2018-02-17T10:58:05.919Z,34.75
2018-02-17T11:00:33.489Z,37.33
2018-02-17T11:03:01.111Z,43.87
2018-02-17T11:05:28.706Z,38.05
2018-02-17T11:07:56.313Z,34.17
2018-02-17T11:10:23.865Z,30.12
2018-02-17T11:12:51.427Z,35.13
2018-02-17T11:15:19.053Z,32.92
2018-02-17T11:17:46.684Z,37.65
2018-02-17T11:20:14.293Z,39.78
2018-02-17T11:22:41.857Z,41.37
2018-02-17T11:25:11.097Z,47.85
2018-02-17T11:27:38.664Z,40.92
2018-02-17T11:30:06.284Z,35.92
2018-02-17T11:32:33.828Z,42.20
2018-02-17T11:35:01.437Z,38.40
2018-02-17T11:37:29.013Z,55.70
2018-02-17T11:39:56.580Z,43.30
2018-02-17T11:42:24.940Z,52.78
2018-02-17T11:44:52.527Z,42.13
2018-02-17T11:47:20.888Z,46.60
2018-02-17T11:49:48.432Z,36.38
2018-02-17T11:52:16.020Z,42.90
2018-02-17T11:54:44.358Z,41.88
2018-02-17T11:57:11.970Z,50.55
2018-02-17T11:59:40.291Z,42.88
2018-02-17T12:02:07.853Z,46.80
2018-02-17T12:04:35.453Z,39.63
2018-02-17T12:07:03.052Z,41.17
2018-02-17T12:09:30.609Z,41.75
2018-02-17T12:11:58.216Z,38.17
2018-02-17T12:14:25.784Z,42.90
2018-02-17T12:16:53.461Z,38.67
2018-02-17T12:19:20.997Z,48.00
2018-02-17T12:21:48.612Z,43.63
2018-02-17T12:24:16.227Z,39.38
2018-02-17T12:26:44.640Z,43.50
2018-02-17T12:29:12.548Z,31.87
2018-02-17T12:31:40.102Z,41.00
2018-02-17T12:34:07.694Z,27.65
2018-02-17T12:36:35.425Z,31.30
2018-02-17T12:39:03.049Z,28.15
2018-02-17T12:41:31.448Z,21.92
2018-02-17T12:43:59.245Z,17.77
2018-02-17T12:46:26.832Z,21.08
2018-02-17T12:48:54.514Z,18.70
2018-02-17T12:51:22.213Z,25.17
2018-02-17T12:53:49.905Z,19.40
2018-02-17T12:56:17.492Z,19.27
2018-02-17T12:58:45.106Z,19.02
2018-02-17T13:01:12.703Z,15.07
2018-02-17T13:03:40.401Z,20.85
2018-02-17T13:06:08.793Z,24.08
2018-02-17T13:08:37.108Z,20.40
2018-02-17T13:11:04.714Z,23.73
2018-02-17T13:13:32.523Z,20.08
2018-02-17T13:16:00.128Z,20.15
2018-02-17T13:18:27.700Z,22.33
2018-02-17T13:20:56.129Z,22.37
2018-02-17T13:23:23.696Z,24.15
2018-02-17T13:25:51.244Z,23.83
2018-02-17T13:28:25.945Z,24.08
2018-02-17T13:30:54.349Z,24.75
2018-02-17T13:33:22.179Z,27.08
2018-02-17T13:35:50.565Z,28.05
2018-02-17T13:38:18.173Z,26.67
2018-02-17T13:40:45.804Z,36.38
2018-02-17T13:43:13.429Z,24.87
2018-02-17T13:45:41.079Z,30.48
2018-02-17T13:48:08.992Z,26.45
2018-02-17T13:50:37.389Z,26.08
2018-02-17T13:53:05.012Z,26.75
2018-02-17T13:55:32.593Z,25.75
2018-02-17T13:58:00.208Z,26.48
2018-02-17T14:00:27.953Z,27.35
2018-02-17T14:02:55.571Z,28.87
2018-02-17T14:05:23.167Z,27.87
2018-02-17T14:07:50.979Z,26.12
2018-02-17T14:10:18.650Z,25.85
2018-02-17T14:12:47.155Z,24.35
2018-02-17T14:15:15.606Z,25.42
2018-02-17T14:17:43.373Z,30.83
2018-02-17T14:20:11.808Z,38.53
2018-02-17T14:22:39.401Z,29.52
2018-02-17T14:25:07.044Z,32.25
2018-02-17T14:27:34.616Z,31.98
2018-02-17T14:30:02.184Z,32.30
2018-02-17T14:32:29.816Z,32.67
2018-02-17T14:34:57.399Z,33.30
2018-02-17T14:37:25.028Z,31.95
2018-02-17T14:39:52.763Z,33.22
2018-02-17T14:42:20.522Z,39.72
2018-02-17T14:44:48.115Z,32.60
2018-02-17T14:47:15.666Z,36.00
2018-02-17T14:49:44.029Z,37.35
2018-02-17T14:52:11.593Z,33.35
2018-02-17T14:54:39.921Z,30.00
2018-02-17T14:57:07.517Z,38.42
2018-02-17T14:59:35.078Z,34.38
2018-02-17T15:02:02.708Z,35.80
2018-02-17T15:04:30.272Z,33.92
2018-02-17T15:06:57.831Z,39.55
2018-02-17T15:09:25.457Z,41.65
2018-02-17T15:11:53.029Z,39.47
2018-02-17T15:14:20.621Z,36.60
2018-02-17T15:16:48.175Z,37.90
2018-02-17T15:19:15.765Z,41.13
2018-02-17T15:21:43.324Z,35.97
2018-02-17T15:24:10.934Z,41.30
2018-02-17T15:26:38.510Z,39.25
2018-02-17T15:29:06.076Z,49.03
2018-02-17T15:31:33.663Z,42.47
2018-02-17T15:34:01.260Z,46.95
2018-02-17T15:36:29.608Z,44.00
2018-02-17T15:38:57.161Z,42.53
2018-02-17T15:41:24.754Z,42.58
2018-02-17T15:43:53.072Z,38.53
2018-02-17T15:46:20.713Z,39.35
2018-02-17T15:48:48.321Z,32.50
2018-02-17T15:51:15.948Z,38.97
2018-02-17T15:53:43.505Z,42.55
2018-02-17T15:56:20.140Z,41.80
2018-02-17T15:58:47.738Z,37.40
2018-02-17T16:01:15.288Z,36.88
2018-02-17T16:03:42.853Z,44.65
2018-02-17T16:06:10.460Z,43.60
2018-02-17T16:08:38.025Z,41.67
2018-02-17T16:11:05.659Z,54.13
2018-02-17T16:13:33.252Z,42.03
2018-02-17T16:16:00.845Z,44.97
2018-02-17T16:18:29.198Z,56.37
2018-02-17T16:20:56.831Z,44.03
2018-02-17T16:23:24.411Z,44.03
2018-02-17T16:25:52.036Z,46.35
2018-02-17T16:28:19.587Z,42.58
2018-02-17T16:30:52.293Z,48.13
2018-02-17T16:33:19.873Z,59.78
2018-02-17T16:35:47.476Z,44.47
2018-02-17T16:38:15.858Z,47.92
2018-02-17T16:40:43.516Z,44.40
2018-02-17T16:43:11.166Z,44.53
2018-02-17T16:45:38.730Z,39.08
2018-02-17T16:48:07.100Z,53.55
2018-02-17T16:50:34.653Z,51.60
2018-02-17T16:53:02.269Z,42.72
2018-02-17T16:55:29.862Z,50.63
2018-02-17T16:57:57.453Z,53.13
2018-02-17T17:00:25.832Z,54.55
2018-02-17T17:02:54.210Z,58.80
2018-02-17T17:05:21.806Z,52.55
2018-02-17T17:07:49.368Z,59.53
2018-02-17T17:10:16.964Z,56.90
2018-02-17T17:12:44.606Z,61.40
2018-02-17T17:15:12.167Z,58.85
2018-02-17T17:17:39.795Z,47.28
2018-02-17T17:20:08.122Z,63.13
2018-02-17T17:22:35.742Z,66.75
2018-02-17T17:25:03.322Z,52.22
2018-02-17T17:27:30.941Z,52.78
2018-02-17T17:29:58.545Z,52.00
2018-02-17T17:32:26.156Z,67.50
2018-02-17T17:34:53.762Z,68.72
2018-02-17T17:37:21.343Z,69.32
2018-02-17T17:39:48.950Z,60.70
2018-02-17T17:42:16.545Z,56.08
2018-02-17T17:44:44.096Z,61.83
2018-02-17T17:47:12.464Z,59.60
2018-02-17T17:49:40.798Z,64.53
2018-02-17T17:52:08.387Z,61.80
2018-02-17T17:54:36.046Z,55.17
2018-02-17T17:57:05.350Z,58.90
2018-02-17T17:59:32.946Z,62.45
2018-02-17T18:02:00.554Z,57.95
2018-02-17T18:04:28.146Z,58.53
2018-02-17T18:06:56.524Z,56.05
2018-02-17T18:09:24.862Z,59.15
2018-02-17T18:11:52.526Z,65.60
2018-02-17T18:14:20.081Z,58.03
2018-02-17T18:16:47.678Z,64.70
2018-02-17T18:19:15.232Z,61.67
2018-02-17T18:21:43.926Z,58.50
2018-02-17T18:24:11.529Z,56.30
2018-02-17T18:26:39.147Z,56.75
2018-02-17T18:29:06.734Z,65.12
2018-02-17T18:31:35.109Z,63.17
2018-02-17T18:34:02.723Z,68.55
2018-02-17T18:36:30.305Z,52.13
2018-02-17T18:38:57.935Z,66.87
2018-02-17T18:41:25.502Z,65.45
2018-02-17T18:43:53.247Z,58.53
2018-02-17T18:46:20.793Z,75.60
2018-02-17T18:48:48.398Z,58.87
2018-02-17T18:51:16.003Z,74.70
2018-02-17T18:53:44.358Z,65.32
2018-02-17T18:56:11.924Z,53.63
2018-02-17T18:58:39.545Z,61.40
2018-02-17T19:01:08.012Z,61.30
2018-02-17T19:03:35.608Z,61.00
2018-02-17T19:06:03.185Z,65.62
2018-02-17T19:08:31.561Z,66.65
2018-02-17T19:10:59.158Z,62.53
2018-02-17T19:13:26.721Z,59.67
2018-02-17T19:15:55.077Z,66.15
2018-02-17T19:18:22.627Z,52.58
2018-02-17T19:20:50.204Z,58.00
2018-02-17T19:23:18.590Z,66.43
2018-02-17T19:25:47.045Z,60.95
2018-02-17T19:28:14.680Z,69.40
2018-02-17T19:30:42.201Z,63.60
2018-02-17T19:33:10.577Z,62.90
2018-02-17T19:35:38.905Z,79.40
2018-02-17T19:38:06.502Z,65.82
2018-02-17T19:40:34.834Z,73.43
2018-02-17T19:43:02.404Z,62.28
2018-02-17T19:45:29.998Z,64.32
2018-02-17T19:47:58.349Z,62.83
2018-02-17T19:50:25.958Z,70.45
2018-02-17T19:52:53.514Z,76.75
2018-02-17T19:55:21.902Z,68.10
2018-02-17T19:57:50.283Z,76.78
2018-02-17T20:00:17.876Z,68.30
2018-02-17T20:02:45.490Z,75.10
2018-02-17T20:05:13.101Z,63.72
2018-02-17T20:07:40.694Z,68.85
2018-02-17T20:10:08.329Z,72.78
2018-02-17T20:12:37.738Z,62.30
2018-02-17T20:15:05.363Z,58.53
2018-02-17T20:17:32.938Z,71.40
2018-02-17T20:20:00.587Z,72.68
2018-02-17T20:22:28.146Z,79.25
2018-02-17T20:24:55.739Z,63.47
2018-02-17T20:27:23.308Z,74.32
2018-02-17T20:29:50.908Z,72.05
2018-02-17T20:32:19.247Z,61.55
2018-02-17T20:34:46.857Z,59.55
2018-02-17T20:37:15.197Z,73.90
2018-02-17T20:39:42.785Z,63.38
2018-02-17T20:42:10.385Z,70.12
2018-02-17T20:44:37.978Z,65.80
2018-02-17T20:47:05.582Z,68.25
2018-02-17T20:49:33.937Z,69.32
2018-02-17T20:52:01.494Z,66.47
2018-02-17T20:54:29.110Z,80.40
2018-02-17T20:56:56.700Z,62.10
2018-02-17T20:59:24.326Z,67.32
2018-02-17T21:01:53.762Z,63.38
2018-02-17T21:04:21.362Z,68.72
2018-02-17T21:06:49.735Z,75.35
2018-02-17T21:09:17.310Z,71.78
2018-02-17T21:11:45.701Z,73.75
2018-02-17T21:14:14.094Z,71.65
2018-02-17T21:16:41.657Z,65.68
2018-02-17T21:19:09.279Z,82.80
2018-02-17T21:21:37.614Z,64.87
2018-02-17T21:24:05.177Z,64.62
2018-02-17T21:26:32.786Z,68.45
2018-02-17T21:29:01.250Z,61.22
2018-02-17T21:31:28.815Z,72.75
2018-02-17T21:33:56.378Z,71.15
2018-02-17T21:36:23.990Z,65.20
2018-02-17T21:38:51.540Z,55.50
2018-02-17T21:41:19.145Z,71.20
2018-02-17T21:43:46.727Z,72.75
2018-02-17T21:46:15.096Z,89.55
2018-02-17T21:48:42.712Z,75.70
2018-02-17T21:51:10.287Z,70.15
2018-02-17T21:53:37.918Z,86.03
2018-02-17T21:56:06.237Z,70.62
2018-02-17T21:58:33.791Z,71.37
2018-02-17T22:01:01.378Z,73.90
2018-02-17T22:03:28.957Z,65.93
2018-02-17T22:05:57.338Z,77.30
2018-02-17T22:08:24.926Z,82.10
2018-02-17T22:10:52.558Z,72.07
2018-02-17T22:13:20.180Z,68.15
2018-02-17T22:15:47.770Z,58.60
2018-02-17T22:18:15.369Z,68.50
2018-02-17T22:20:43.006Z,56.50
2018-02-17T22:23:10.566Z,70.87
2018-02-17T22:25:38.157Z,63.05
2018-02-17T22:28:05.773Z,76.07
2018-02-17T22:30:33.351Z,55.63
2018-02-17T22:33:00.964Z,52.42
2018-02-17T22:35:28.559Z,59.63
2018-02-17T22:37:56.166Z,60.12
2018-02-17T22:40:23.784Z,60.63
2018-02-17T22:42:51.341Z,68.30
2018-02-17T22:45:18.977Z,65.75
2018-02-17T22:47:46.591Z,63.13
2018-02-17T22:50:14.918Z,63.92
2018-02-17T22:52:42.523Z,57.05
2018-02-17T22:55:10.877Z,76.25
2018-02-17T22:57:38.440Z,59.35
2018-02-17T23:00:06.794Z,68.00
2018-02-17T23:02:34.431Z,59.50
2018-02-17T23:05:02.003Z,71.60
2018-02-17T23:07:29.604Z,66.45
2018-02-17T23:09:57.165Z,57.20
2018-02-17T23:12:24.783Z,68.75
2018-02-17T23:14:52.370Z,57.62
2018-02-17T23:17:19.938Z,62.55
2018-02-17T23:19:47.534Z,73.93
2018-02-17T23:22:15.861Z,59.97
2018-02-17T23:24:43.487Z,66.10
2018-02-17T23:27:11.835Z,64.25
2018-02-17T23:29:39.406Z,63.87
2018-02-17T23:32:07.005Z,58.58
2018-02-17T23:34:34.594Z,56.92
2018-02-17T23:37:02.180Z,64.57
2018-02-17T23:39:29.738Z,73.45
2018-02-17T23:41:57.337Z,63.33
2018-02-17T23:44:24.905Z,60.42
2018-02-17T23:46:52.500Z,70.65
2018-02-17T23:49:20.069Z,66.50
2018-02-17T23:51:47.677Z,53.55
2018-02-17T23:54:16.008Z,73.47
2018-02-17T23:56:43.618Z,68.62
2018-02-17T23:59:12.038Z,59.63
